createdAt,value
2019-05-03T00:02:27.530Z,63.95
2019-05-03T00:05:18.767Z,63.65
2019-05-03T00:07:48.679Z,62.87
2019-05-03T00:10:18.173Z,63.32
2019-05-03T00:12:47.235Z,61.25
2019-05-03T00:15:32.231Z,61.82
2019-05-03T00:18:03.104Z,61.97
2019-05-03T00:20:32.647Z,61.50
2019-05-03T00:23:02.902Z,62.13
2019-05-03T00:25:32.702Z,63.11
2019-05-03T00:28:02.712Z,63.36
2019-05-03T00:30:32.111Z,63.09
2019-05-03T00:33:02.852Z,62.84
2019-05-03T00:35:56.909Z,63.57
2019-05-03T00:38:25.978Z,63.01
2019-05-03T00:40:55.277Z,64.25
2019-05-03T00:43:24.333Z,63.39
2019-05-03T00:45:53.436Z,63.43
2019-05-03T00:48:22.755Z,63.84
2019-05-03T00:50:51.896Z,63.56
2019-05-03T00:53:22.447Z,63.67
2019-05-03T00:55:52.457Z,64.12
2019-05-03T00:58:22.393Z,63.39
2019-05-03T01:00:52.468Z,62.73
2019-05-03T01:03:22.190Z,62.61
2019-05-03T01:05:52.924Z,62.28
2019-05-03T01:08:22.186Z,62.96
2019-05-03T01:10:51.736Z,63.46
2019-05-03T01:13:21.877Z,63.85
2019-05-03T01:16:03.369Z,63.89
2019-05-03T01:18:32.690Z,62.85
2019-05-03T01:21:02.316Z,62.83
2019-05-03T01:23:32.604Z,63.49
2019-05-03T01:26:04.196Z,63.88
2019-05-03T01:28:32.995Z,63.58
2019-05-03T01:31:02.547Z,63.20
2019-05-03T01:33:32.253Z,63.18
2019-05-03T01:36:03.262Z,63.55
2019-05-03T01:38:32.693Z,62.68
2019-05-03T01:41:01.954Z,63.39
2019-05-03T01:43:31.737Z,62.75
2019-05-03T01:46:02.722Z,62.94
2019-05-03T01:48:56.911Z,62.82
2019-05-03T01:51:43.842Z,62.81
2019-05-03T01:54:12.887Z,62.43
2019-05-03T01:56:55.484Z,62.21
2019-05-03T01:59:13.051Z,62.05
2019-05-03T02:02:02.296Z,61.91
2019-05-03T02:04:47.390Z,62.18
2019-05-03T02:07:16.445Z,61.62
2019-05-03T02:09:45.767Z,61.84
2019-05-03T02:12:14.823Z,62.50
2019-05-03T02:14:43.890Z,62.86
2019-05-03T02:17:13.268Z,63.74
2019-05-03T02:19:42.354Z,62.18
2019-05-03T02:22:12.021Z,61.70
2019-05-03T02:24:42.289Z,62.19
2019-05-03T02:27:12.788Z,63.57
2019-05-03T02:29:41.959Z,62.40
2019-05-03T02:32:13.233Z,63.33
2019-05-03T02:34:44.057Z,63.05
2019-05-03T02:37:14.390Z,62.61
2019-05-03T02:39:43.717Z,61.84
2019-05-03T02:42:15.863Z,60.35
2019-05-03T02:44:45.897Z,60.46
2019-05-03T02:47:39.351Z,59.77
2019-05-03T02:50:12.117Z,59.65
2019-05-03T02:52:41.473Z,59.65
2019-05-03T02:55:15.695Z,60.10
2019-05-03T02:57:46.223Z,59.80
2019-05-03T03:00:16.408Z,58.82
2019-05-03T03:02:45.934Z,58.96
2019-05-03T03:05:16.714Z,58.47
2019-05-03T03:07:47.166Z,58.17
2019-05-03T03:10:17.465Z,57.56
2019-05-03T03:12:48.902Z,58.39
2019-05-03T03:15:18.249Z,58.33
2019-05-03T03:17:48.139Z,57.91
2019-05-03T03:20:17.211Z,58.08
2019-05-03T03:22:48.007Z,58.47
2019-05-03T03:25:25.751Z,58.05
2019-05-03T03:27:58.473Z,58.17
2019-05-03T03:30:57.477Z,58.26
2019-05-03T03:33:28.198Z,57.83
2019-05-03T03:36:07.284Z,57.75
2019-05-03T03:38:29.229Z,58.42
2019-05-03T03:40:58.998Z,58.59
2019-05-03T03:43:28.707Z,58.14
2019-05-03T03:45:58.010Z,58.47
2019-05-03T03:48:27.379Z,58.01
2019-05-03T03:50:56.819Z,57.78
2019-05-03T03:53:26.806Z,57.62
2019-05-03T03:55:56.640Z,58.04
2019-05-03T03:58:27.103Z,57.72
2019-05-03T04:00:56.400Z,57.60
2019-05-03T04:03:26.172Z,57.91
2019-05-03T04:05:55.741Z,57.58
2019-05-03T04:08:25.291Z,57.15
2019-05-03T04:10:55.860Z,57.03
2019-05-03T04:13:25.859Z,57.41
2019-05-03T04:16:08.723Z,57.33
2019-05-03T04:18:59.812Z,57.75
2019-05-03T04:21:28.884Z,57.87
2019-05-03T04:23:58.218Z,58.37
2019-05-03T04:26:29.737Z,58.42
2019-05-03T04:28:58.405Z,58.23
2019-05-03T04:31:28.455Z,58.51
2019-05-03T04:33:57.749Z,59.33
2019-05-03T04:36:26.908Z,59.43
2019-05-03T04:38:56.586Z,59.07
2019-05-03T04:41:27.226Z,58.54
2019-05-03T04:43:56.564Z,58.81
2019-05-03T04:46:26.305Z,58.90
2019-05-03T04:48:56.189Z,58.73
2019-05-03T04:51:26.193Z,58.63
2019-05-03T04:54:16.506Z,59.63
2019-05-03T04:56:46.496Z,59.07
2019-05-03T04:59:16.281Z,59.35
2019-05-03T05:01:46.210Z,59.37
2019-05-03T05:04:16.171Z,59.67
2019-05-03T05:06:45.774Z,59.81
2019-05-03T05:09:15.512Z,60.36
2019-05-03T05:11:45.838Z,59.17
2019-05-03T05:14:15.831Z,59.75
2019-05-03T05:16:46.504Z,59.55
2019-05-03T05:19:19.197Z,59.18
2019-05-03T05:22:05.807Z,58.67
2019-05-03T05:25:15.570Z,58.14
2019-05-03T05:28:25.770Z,58.24
2019-05-03T05:30:54.895Z,59.09
2019-05-03T05:33:25.166Z,59.67
2019-05-03T05:35:54.859Z,58.77
2019-05-03T05:38:25.584Z,59.47
2019-05-03T05:40:55.573Z,59.12
2019-05-03T05:43:25.749Z,59.08
2019-05-03T05:45:56.287Z,59.42
2019-05-03T05:48:32.216Z,59.06
2019-05-03T05:51:01.340Z,59.67
2019-05-03T05:53:30.423Z,59.64
2019-05-03T05:56:21.789Z,59.92
2019-05-03T05:59:15.865Z,60.05
2019-05-03T06:02:07.004Z,60.04
2019-05-03T06:04:36.287Z,59.43
2019-05-03T06:07:24.880Z,59.67
2019-05-03T06:10:16.666Z,59.36
2019-05-03T06:12:51.196Z,58.84
2019-05-03T06:15:45.256Z,58.60
2019-05-03T06:18:19.456Z,58.81
2019-05-03T06:21:10.435Z,58.58
2019-05-03T06:23:45.164Z,58.31
2019-05-03T06:26:31.943Z,58.40
2019-05-03T06:29:01.381Z,58.54
2019-05-03T06:31:46.308Z,57.75
2019-05-03T06:34:15.714Z,57.27
2019-05-03T06:36:46.476Z,57.32
2019-05-03T06:39:15.614Z,57.17
2019-05-03T06:41:45.061Z,56.90
2019-05-03T06:44:19.227Z,56.59
2019-05-03T06:46:47.193Z,56.69
2019-05-03T06:49:18.985Z,56.60
2019-05-03T06:51:49.818Z,56.83
2019-05-03T06:54:25.427Z,56.61
2019-05-03T06:56:51.375Z,56.57
2019-05-03T06:59:28.930Z,57.41
2019-05-03T07:02:16.439Z,56.74
2019-05-03T07:04:47.277Z,56.37
2019-05-03T07:07:29.577Z,56.78
2019-05-03T07:10:36.158Z,56.57
2019-05-03T07:13:08.780Z,57.22
2019-05-03T07:15:36.505Z,56.15
2019-05-03T07:18:08.620Z,55.65
2019-05-03T07:21:04.722Z,55.26
2019-05-03T07:23:34.945Z,55.78
2019-05-03T07:26:05.796Z,55.20
2019-05-03T07:28:46.284Z,55.97
2019-05-03T07:31:06.241Z,56.28
2019-05-03T07:33:35.926Z,55.45
2019-05-03T07:36:07.411Z,55.32
2019-05-03T07:38:36.520Z,54.45
2019-05-03T07:41:05.601Z,54.87
2019-05-03T07:43:45.086Z,53.97
2019-05-03T07:46:15.326Z,53.57
2019-05-03T07:48:45.774Z,53.95
2019-05-03T07:51:16.288Z,53.03
2019-05-03T07:53:45.686Z,53.70
2019-05-03T07:56:16.208Z,52.43
2019-05-03T07:58:59.446Z,51.84
2019-05-03T08:01:29.553Z,51.43
2019-05-03T08:03:59.323Z,51.60
2019-05-03T08:06:28.803Z,52.56
2019-05-03T08:08:57.934Z,52.77
2019-05-03T08:11:27.082Z,51.58
2019-05-03T08:13:56.935Z,52.59
2019-05-03T08:16:26.245Z,52.51
2019-05-03T08:18:55.974Z,51.27
2019-05-03T08:21:25.455Z,51.61
2019-05-03T08:23:55.654Z,50.87
2019-05-03T08:26:25.702Z,50.93
2019-05-03T08:28:55.531Z,51.94
2019-05-03T08:31:46.439Z,52.01
2019-05-03T08:34:36.095Z,52.23
2019-05-03T08:37:07.280Z,52.20
2019-05-03T08:39:36.638Z,51.63
2019-05-03T08:42:09.956Z,52.35
2019-05-03T08:44:39.086Z,52.63
2019-05-03T08:47:08.511Z,52.11
2019-05-03T08:49:38.192Z,52.73
2019-05-03T08:52:07.611Z,52.25
2019-05-03T08:54:37.624Z,52.02
2019-05-03T08:57:06.760Z,50.98
2019-05-03T08:59:35.965Z,51.87
2019-05-03T09:02:13.861Z,51.92
2019-05-03T09:04:39.481Z,50.85
2019-05-03T09:07:08.262Z,50.85
2019-05-03T09:09:55.180Z,51.80
2019-05-03T09:12:28.783Z,50.91
2019-05-03T09:14:58.256Z,49.82
2019-05-03T09:17:27.524Z,49.74
2019-05-03T09:19:56.633Z,49.84
2019-05-03T09:22:26.044Z,50.54
2019-05-03T09:24:55.489Z,49.10
2019-05-03T09:27:24.883Z,48.62
2019-05-03T09:29:55.817Z,48.01
2019-05-03T09:32:25.683Z,48.51
2019-05-03T09:34:55.158Z,49.42
2019-05-03T09:37:25.099Z,49.16
2019-05-03T09:39:55.195Z,47.07
2019-05-03T09:42:24.958Z,48.02
2019-05-03T09:44:55.621Z,47.61
2019-05-03T09:47:25.463Z,46.16
2019-05-03T09:49:56.042Z,45.81
2019-05-03T09:52:25.349Z,43.98
2019-05-03T09:54:56.174Z,44.24
2019-05-03T09:57:25.346Z,45.60
2019-05-03T09:59:59.675Z,44.77
2019-05-03T10:02:25.918Z,44.02
2019-05-03T10:04:55.484Z,43.99
2019-05-03T10:07:25.772Z,44.51
2019-05-03T10:09:55.368Z,44.62
2019-05-03T10:12:25.504Z,44.83
2019-05-03T10:14:55.137Z,44.23
2019-05-03T10:17:52.692Z,43.37
2019-05-03T10:20:25.190Z,42.74
2019-05-03T10:22:56.179Z,42.93
2019-05-03T10:25:25.368Z,43.73
2019-05-03T10:27:55.024Z,42.71
2019-05-03T10:30:26.830Z,42.01
2019-05-03T10:33:05.979Z,42.15
2019-05-03T10:35:35.484Z,41.46
2019-05-03T10:38:10.421Z,41.78
2019-05-03T10:40:39.489Z,40.82
2019-05-03T10:43:09.150Z,40.21
2019-05-03T10:45:38.304Z,40.70
2019-05-03T10:48:07.458Z,40.46
2019-05-03T10:50:36.870Z,41.53
2019-05-03T10:53:12.037Z,41.73
2019-05-03T10:55:45.662Z,40.60
2019-05-03T10:58:17.205Z,41.76
2019-05-03T11:00:52.765Z,41.55
2019-05-03T11:03:19.770Z,41.14
2019-05-03T11:05:48.888Z,41.16
2019-05-03T11:08:17.959Z,40.18
2019-05-03T11:10:47.292Z,40.31
2019-05-03T11:13:16.384Z,38.37
2019-05-03T11:15:45.569Z,38.06
2019-05-03T11:18:15.049Z,38.01
2019-05-03T11:20:45.265Z,37.88
2019-05-03T11:23:22.126Z,37.39
2019-05-03T11:25:51.617Z,38.03
2019-05-03T11:28:24.979Z,38.04
2019-05-03T11:31:01.313Z,39.12
2019-05-03T11:33:35.223Z,38.84
2019-05-03T11:36:25.322Z,38.00
2019-05-03T11:38:55.818Z,39.17
2019-05-03T11:41:32.058Z,38.63
2019-05-03T11:44:17.495Z,38.99
2019-05-03T11:46:46.952Z,38.36
2019-05-03T11:49:16.108Z,38.58
2019-05-03T11:51:45.330Z,38.63
2019-05-03T11:54:16.676Z,38.72
2019-05-03T11:56:46.150Z,37.98
2019-05-03T11:59:16.641Z,38.75
2019-05-03T12:01:55.315Z,38.50
2019-05-03T12:04:25.050Z,37.58
2019-05-03T12:06:54.997Z,37.85
2019-05-03T12:09:24.362Z,38.25
2019-05-03T12:11:55.415Z,37.87
2019-05-03T12:14:24.599Z,39.27
2019-05-03T12:17:17.152Z,39.01
2019-05-03T12:19:32.319Z,39.40
2019-05-03T12:22:02.293Z,40.01
2019-05-03T12:24:32.483Z,40.42
2019-05-03T12:27:01.995Z,39.97
2019-05-03T12:29:35.254Z,40.03
2019-05-03T12:32:05.412Z,39.98
2019-05-03T12:34:35.449Z,40.84
2019-05-03T12:37:05.226Z,40.57
2019-05-03T12:39:36.073Z,41.19
2019-05-03T12:42:09.023Z,41.05
2019-05-03T12:44:46.045Z,41.25
2019-05-03T12:47:19.078Z,41.05
2019-05-03T12:49:50.304Z,41.22
2019-05-03T12:52:20.229Z,40.91
2019-05-03T12:54:49.993Z,40.86
2019-05-03T12:57:19.949Z,40.67
2019-05-03T13:00:15.639Z,40.64
2019-05-03T13:02:51.665Z,40.92
2019-05-03T13:05:20.765Z,41.11
2019-05-03T13:08:08.246Z,40.70
2019-05-03T13:10:37.401Z,41.26
2019-05-03T13:13:07.609Z,41.53
2019-05-03T13:15:36.902Z,41.03
2019-05-03T13:18:06.587Z,41.46
2019-05-03T13:20:37.453Z,41.50
2019-05-03T13:23:08.646Z,41.38
2019-05-03T13:25:39.488Z,41.29
2019-05-03T13:28:08.941Z,41.43
2019-05-03T13:30:38.029Z,41.31
2019-05-03T13:33:07.182Z,40.91
2019-05-03T13:35:36.701Z,40.93
2019-05-03T13:38:08.559Z,40.80
2019-05-03T13:40:37.617Z,41.46
2019-05-03T13:43:08.564Z,41.48
2019-05-03T13:45:39.329Z,41.77
2019-05-03T13:48:12.383Z,41.97
2019-05-03T13:50:41.732Z,44.01
2019-05-03T13:53:10.846Z,46.34
2019-05-03T13:55:40.306Z,48.63
2019-05-03T13:58:10.502Z,51.06
2019-05-03T14:00:45.133Z,52.40
2019-05-03T14:03:15.201Z,52.03
2019-05-03T14:05:44.804Z,51.55
2019-05-03T14:08:15.666Z,51.43
2019-05-03T14:10:45.792Z,51.36
2019-05-03T14:13:15.685Z,51.98
2019-05-03T14:15:46.094Z,49.15
2019-05-03T14:18:15.641Z,48.83
2019-05-03T14:21:06.431Z,48.20
2019-05-03T14:23:59.660Z,48.04
2019-05-03T14:26:28.929Z,47.94
2019-05-03T14:28:59.284Z,48.61
2019-05-03T14:31:28.449Z,48.95
2019-05-03T14:33:57.624Z,48.68
2019-05-03T14:36:27.155Z,48.35
2019-05-03T14:38:56.708Z,47.99
2019-05-03T14:41:25.794Z,47.98
2019-05-03T14:43:56.098Z,47.96
2019-05-03T14:46:32.666Z,47.83
2019-05-03T14:48:58.242Z,47.69
2019-05-03T14:51:27.775Z,47.77
2019-05-03T14:53:57.648Z,47.49
2019-05-03T14:56:34.766Z,47.90
2019-05-03T14:59:27.284Z,48.77
2019-05-03T15:02:05.272Z,48.71
2019-05-03T15:04:35.118Z,48.59
2019-05-03T15:07:06.089Z,48.93
2019-05-03T15:09:35.514Z,49.13
2019-05-03T15:12:05.856Z,49.52
2019-05-03T15:14:35.433Z,49.71
2019-05-03T15:17:05.434Z,50.15
2019-05-03T15:19:35.149Z,50.52
2019-05-03T15:22:07.219Z,50.78
2019-05-03T15:24:36.423Z,50.78
2019-05-03T15:27:05.934Z,50.93
2019-05-03T15:29:35.606Z,51.50
2019-05-03T15:32:05.516Z,51.57
2019-05-03T15:34:35.592Z,52.12
2019-05-03T15:37:05.567Z,52.11
2019-05-03T15:39:34.703Z,51.85
2019-05-03T15:42:05.420Z,51.56
2019-05-03T15:44:54.625Z,51.29
2019-05-03T15:47:28.413Z,50.88
2019-05-03T15:50:02.564Z,51.41
2019-05-03T15:52:35.181Z,51.12
2019-05-03T15:55:06.587Z,51.04
2019-05-03T15:57:36.496Z,51.18
2019-05-03T16:00:09.405Z,50.63
2019-05-03T16:02:39.090Z,50.45
2019-05-03T16:05:11.426Z,50.14
2019-05-03T16:07:46.322Z,50.00
2019-05-03T16:10:15.607Z,49.89
2019-05-03T16:12:45.019Z,49.30
2019-05-03T16:15:17.199Z,49.41
2019-05-03T16:17:49.582Z,48.97
2019-05-03T16:20:20.849Z,49.40
2019-05-03T16:22:54.446Z,49.44
2019-05-03T16:25:25.135Z,48.87
2019-05-03T16:28:20.467Z,49.26
2019-05-03T16:30:58.926Z,48.85
2019-05-03T16:33:30.539Z,48.98
2019-05-03T16:35:59.817Z,48.67
2019-05-03T16:38:36.119Z,48.26
2019-05-03T16:41:07.805Z,48.48
2019-05-03T16:43:39.879Z,48.50
2019-05-03T16:46:10.917Z,49.05
2019-05-03T16:48:40.333Z,48.92
2019-05-03T16:51:17.302Z,49.36
2019-05-03T16:53:52.042Z,49.67
2019-05-03T16:56:21.836Z,49.17
2019-05-03T16:58:55.292Z,49.26
2019-05-03T17:01:29.447Z,49.49
2019-05-03T17:04:19.616Z,49.50
2019-05-03T17:07:00.549Z,48.96
2019-05-03T17:09:47.213Z,47.71
2019-05-03T17:12:25.526Z,47.21
2019-05-03T17:14:57.112Z,46.93
2019-05-03T17:17:30.425Z,46.72
2019-05-03T17:19:59.975Z,46.40
2019-05-03T17:22:29.206Z,45.90
2019-05-03T17:24:58.390Z,45.78
2019-05-03T17:27:27.829Z,44.93
2019-05-03T17:29:57.046Z,44.48
2019-05-03T17:32:26.260Z,43.53
2019-05-03T17:34:55.990Z,43.50
2019-05-03T17:37:25.679Z,43.86
2019-05-03T17:40:09.562Z,43.03
2019-05-03T17:42:57.980Z,42.99
2019-05-03T17:45:32.087Z,42.99
2019-05-03T17:48:04.499Z,42.70
2019-05-03T17:50:32.366Z,42.95
2019-05-03T17:53:25.222Z,42.48
2019-05-03T17:56:15.163Z,42.78
2019-05-03T17:59:15.549Z,42.91
2019-05-03T18:02:12.788Z,43.27
2019-05-03T18:05:10.910Z,43.18
2019-05-03T18:08:03.668Z,42.74
2019-05-03T18:10:33.779Z,43.14
2019-05-03T18:13:03.381Z,42.87
2019-05-03T18:15:34.408Z,42.73
2019-05-03T18:18:06.710Z,42.94
2019-05-03T18:20:36.178Z,42.82
2019-05-03T18:23:05.820Z,43.37
2019-05-03T18:25:35.578Z,43.18
2019-05-03T18:28:07.237Z,43.14
2019-05-03T18:30:36.445Z,43.31
2019-05-03T18:33:06.328Z,43.70
2019-05-03T18:35:35.611Z,43.73
2019-05-03T18:38:06.194Z,43.54
2019-05-03T18:40:36.437Z,43.82
2019-05-03T18:43:10.978Z,43.70
2019-05-03T18:45:56.412Z,43.93
2019-05-03T18:48:26.520Z,43.95
2019-05-03T18:50:56.659Z,43.85
2019-05-03T18:53:25.928Z,43.28
2019-05-03T18:55:57.317Z,43.50
2019-05-03T18:58:30.159Z,43.28
2019-05-03T19:00:59.725Z,43.40
2019-05-03T19:03:29.852Z,44.16
2019-05-03T19:06:05.353Z,44.61
2019-05-03T19:08:52.148Z,44.78
2019-05-03T19:11:28.432Z,45.04
2019-05-03T19:14:01.426Z,47.42
2019-05-03T19:16:45.411Z,49.16
2019-05-03T19:19:15.947Z,50.69
2019-05-03T19:21:45.938Z,51.94
2019-05-03T19:24:15.379Z,52.07
2019-05-03T19:26:45.152Z,52.02
2019-05-03T19:29:14.987Z,53.59
2019-05-03T19:31:44.982Z,53.03
2019-05-03T19:34:15.454Z,52.36
2019-05-03T19:36:45.732Z,52.88
2019-05-03T19:39:15.157Z,52.25
2019-05-03T19:41:44.918Z,52.40
2019-05-03T19:44:15.141Z,53.26
2019-05-03T19:46:44.654Z,53.03
2019-05-03T19:49:14.036Z,52.85
2019-05-03T19:51:45.139Z,53.16
2019-05-03T19:54:14.812Z,52.67
2019-05-03T19:56:44.574Z,52.97
2019-05-03T19:59:34.868Z,53.23
2019-05-03T20:02:24.582Z,53.62
2019-05-03T20:05:14.980Z,54.12
2019-05-03T20:08:06.567Z,54.21
2019-05-03T20:10:36.815Z,54.55
2019-05-03T20:13:06.167Z,54.10
2019-05-03T20:15:35.522Z,54.52
2019-05-03T20:18:10.296Z,54.52
2019-05-03T20:20:39.654Z,54.34
2019-05-03T20:23:08.986Z,53.68
2019-05-03T20:25:38.628Z,52.81
2019-05-03T20:28:07.977Z,51.95
2019-05-03T20:30:37.311Z,49.98
2019-05-03T20:33:07.016Z,47.72
2019-05-03T20:35:36.281Z,47.18
2019-05-03T20:38:08.185Z,46.60
2019-05-03T20:40:37.852Z,46.71
2019-05-03T20:43:27.039Z,46.41
2019-05-03T20:46:04.942Z,46.24
2019-05-03T20:48:34.365Z,46.16
2019-05-03T20:51:03.485Z,45.70
2019-05-03T20:53:34.972Z,45.73
2019-05-03T20:56:05.271Z,45.28
2019-05-03T20:58:35.834Z,45.16
2019-05-03T21:01:05.121Z,45.10
2019-05-03T21:03:34.157Z,45.24
2019-05-03T21:06:05.040Z,45.52
2019-05-03T21:08:48.986Z,45.15
2019-05-03T21:11:06.377Z,45.93
2019-05-03T21:13:42.033Z,45.79
2019-05-03T21:16:29.707Z,45.34
2019-05-03T21:19:26.654Z,46.03
2019-05-03T21:22:05.534Z,45.73
2019-05-03T21:24:46.720Z,44.76
2019-05-03T21:27:15.963Z,44.53
2019-05-03T21:29:54.824Z,44.28
2019-05-03T21:32:25.077Z,44.49
2019-05-03T21:34:55.740Z,44.53
2019-05-03T21:37:27.974Z,44.50
2019-05-03T21:39:57.764Z,44.71
2019-05-03T21:42:27.119Z,45.12
2019-05-03T21:44:57.775Z,45.28
2019-05-03T21:47:50.960Z,45.26
2019-05-03T21:50:21.081Z,45.06
2019-05-03T21:52:50.575Z,44.89
2019-05-03T21:55:20.001Z,44.60
2019-05-03T21:57:49.122Z,44.63
2019-05-03T22:00:24.055Z,44.61
2019-05-03T22:02:54.610Z,44.33
2019-05-03T22:05:26.457Z,44.24
2019-05-03T22:07:55.722Z,44.64
2019-05-03T22:10:28.133Z,44.76
2019-05-03T22:12:59.354Z,44.95
2019-05-03T22:15:38.762Z,46.13
2019-05-03T22:18:17.964Z,45.48
2019-05-03T22:21:05.715Z,45.22
2019-05-03T22:23:55.134Z,45.24
2019-05-03T22:26:48.737Z,45.28
2019-05-03T22:29:18.456Z,45.08
2019-05-03T22:31:47.534Z,45.04
2019-05-03T22:34:16.630Z,45.05
2019-05-03T22:36:46.002Z,44.85
2019-05-03T22:39:15.771Z,45.10
2019-05-03T22:41:45.688Z,45.03
2019-05-03T22:44:17.091Z,45.31
2019-05-03T22:46:46.200Z,46.19
2019-05-03T22:49:15.672Z,46.40
2019-05-03T22:51:45.328Z,46.45
2019-05-03T22:54:15.350Z,46.20
2019-05-03T22:56:44.934Z,45.85
2019-05-03T22:59:14.877Z,46.41
2019-05-03T23:01:45.836Z,46.69
2019-05-03T23:04:15.152Z,46.29
2019-05-03T23:06:46.997Z,46.47
2019-05-03T23:09:15.972Z,47.39
2019-05-03T23:11:46.429Z,47.83
2019-05-03T23:14:15.492Z,47.83
2019-05-03T23:16:44.993Z,48.04
2019-05-03T23:19:15.093Z,48.25
2019-05-03T23:21:49.295Z,48.00
2019-05-03T23:24:18.494Z,47.99
2019-05-03T23:26:47.530Z,47.95
2019-05-03T23:29:16.625Z,47.90
2019-05-03T23:31:46.004Z,47.88
2019-05-03T23:34:15.075Z,47.86
2019-05-03T23:36:45.526Z,48.75
2019-05-03T23:39:14.943Z,47.97
2019-05-03T23:41:43.985Z,48.05
2019-05-03T23:44:15.054Z,47.86
2019-05-03T23:46:54.571Z,48.30
2019-05-03T23:49:25.049Z,48.25
2019-05-03T23:51:56.596Z,47.82
2019-05-03T23:54:26.181Z,47.86
2019-05-03T23:56:55.239Z,48.30
2019-05-03T23:59:24.717Z,47.72
